sensor_id;sensor_type;location;lat;lon;timestamp;P1;durP1;ratioP1;P2;durP2;ratioP2
70558;SDS011;58108;48.094;11.838;2024-01-30T00:02:14;9.48;;;3.25;;
70558;SDS011;58108;48.094;11.838;2024-01-30T00:04:40;10.13;;;3.88;;
70558;SDS011;58108;48.094;11.838;2024-01-30T00:07:05;7.23;;;2.93;;
70558;SDS011;58108;48.094;11.838;2024-01-30T00:09:31;7.93;;;3.00;;
70558;SDS011;58108;48.094;11.838;2024-01-30T00:11:56;10.00;;;3.50;;
70558;SDS011;58108;48.094;11.838;2024-01-30T00:14:22;7.97;;;2.90;;
70558;SDS011;58108;48.094;11.838;2024-01-30T00:16:48;7.93;;;3.00;;
70558;SDS011;58108;48.094;11.838;2024-01-30T00:19:14;8.82;;;2.97;;
70558;SDS011;58108;48.094;11.838;2024-01-30T00:21:39;9.10;;;3.22;;
70558;SDS011;58108;48.094;11.838;2024-01-30T00:24:05;9.63;;;3.20;;
70558;SDS011;58108;48.094;11.838;2024-01-30T00:26:31;9.00;;;2.67;;
70558;SDS011;58108;48.094;11.838;2024-01-30T00:28:56;5.88;;;2.30;;
70558;SDS011;58108;48.094;11.838;2024-01-30T00:31:22;7.70;;;2.67;;
70558;SDS011;58108;48.094;11.838;2024-01-30T00:33:47;7.10;;;2.57;;
70558;SDS011;58108;48.094;11.838;2024-01-30T00:36:13;6.63;;;2.67;;
70558;SDS011;58108;48.094;11.838;2024-01-30T00:38:38;7.13;;;2.30;;
70558;SDS011;58108;48.094;11.838;2024-01-30T00:41:06;7.05;;;1.80;;
70558;SDS011;58108;48.094;11.838;2024-01-30T00:43:33;8.87;;;2.20;;
70558;SDS011;58108;48.094;11.838;2024-01-30T00:45:58;10.63;;;3.90;;
70558;SDS011;58108;48.094;11.838;2024-01-30T00:48:24;7.80;;;2.90;;
70558;SDS011;58108;48.094;11.838;2024-01-30T00:50:50;5.93;;;2.30;;
70558;SDS011;58108;48.094;11.838;2024-01-30T00:53:15;7.40;;;2.80;;
70558;SDS011;58108;48.094;11.838;2024-01-30T00:55:40;7.67;;;2.80;;
70558;SDS011;58108;48.094;11.838;2024-01-30T00:58:06;6.40;;;2.20;;
70558;SDS011;58108;48.094;11.838;2024-01-30T01:00:32;5.32;;;2.22;;
70558;SDS011;58108;48.094;11.838;2024-01-30T01:02:58;7.23;;;2.57;;
70558;SDS011;58108;48.094;11.838;2024-01-30T01:05:24;7.93;;;2.85;;
70558;SDS011;58108;48.094;11.838;2024-01-30T01:07:49;8.48;;;2.50;;
70558;SDS011;58108;48.094;11.838;2024-01-30T01:10:16;6.43;;;2.40;;
70558;SDS011;58108;48.094;11.838;2024-01-30T01:12:42;6.57;;;2.22;;
70558;SDS011;58108;48.094;11.838;2024-01-30T01:15:08;8.30;;;2.58;;
70558;SDS011;58108;48.094;11.838;2024-01-30T01:17:37;7.00;;;2.97;;
70558;SDS011;58108;48.094;11.838;2024-01-30T01:20:03;8.00;;;3.00;;
70558;SDS011;58108;48.094;11.838;2024-01-30T01:22:30;7.40;;;2.38;;
70558;SDS011;58108;48.094;11.838;2024-01-30T01:24:56;7.00;;;2.92;;
70558;SDS011;58108;48.094;11.838;2024-01-30T01:27:22;8.07;;;2.80;;
70558;SDS011;58108;48.094;11.838;2024-01-30T01:29:47;7.18;;;2.72;;
70558;SDS011;58108;48.094;11.838;2024-01-30T01:32:13;7.43;;;2.60;;
70558;SDS011;58108;48.094;11.838;2024-01-30T01:34:38;7.13;;;2.90;;
70558;SDS011;58108;48.094;11.838;2024-01-30T01:37:04;8.23;;;3.10;;
70558;SDS011;58108;48.094;11.838;2024-01-30T01:39:29;10.05;;;3.47;;
70558;SDS011;58108;48.094;11.838;2024-01-30T01:41:55;10.55;;;3.72;;
70558;SDS011;58108;48.094;11.838;2024-01-30T01:44:20;8.83;;;2.93;;
70558;SDS011;58108;48.094;11.838;2024-01-30T01:46:46;10.90;;;3.10;;
70558;SDS011;58108;48.094;11.838;2024-01-30T01:49:12;13.50;;;4.18;;
70558;SDS011;58108;48.094;11.838;2024-01-30T01:51:39;8.38;;;2.58;;
70558;SDS011;58108;48.094;11.838;2024-01-30T01:54:07;6.78;;;2.70;;
70558;SDS011;58108;48.094;11.838;2024-01-30T01:56:34;7.20;;;2.60;;
70558;SDS011;58108;48.094;11.838;2024-01-30T01:59:02;7.25;;;2.80;;
70558;SDS011;58108;48.094;11.838;2024-01-30T02:01:31;6.82;;;2.38;;
70558;SDS011;58108;48.094;11.838;2024-01-30T02:03:58;9.32;;;2.63;;
70558;SDS011;58108;48.094;11.838;2024-01-30T02:06:24;8.50;;;2.70;;
70558;SDS011;58108;48.094;11.838;2024-01-30T02:08:49;6.97;;;2.67;;
70558;SDS011;58108;48.094;11.838;2024-01-30T02:11:15;7.80;;;2.87;;
70558;SDS011;58108;48.094;11.838;2024-01-30T02:13:42;8.25;;;2.70;;
70558;SDS011;58108;48.094;11.838;2024-01-30T02:16:08;9.65;;;3.13;;
70558;SDS011;58108;48.094;11.838;2024-01-30T02:18:33;8.50;;;2.80;;
70558;SDS011;58108;48.094;11.838;2024-01-30T02:21:16;9.38;;;3.10;;
70558;SDS011;58108;48.094;11.838;2024-01-30T02:23:43;9.10;;;3.10;;
70558;SDS011;58108;48.094;11.838;2024-01-30T02:26:11;6.60;;;2.78;;
70558;SDS011;58108;48.094;11.838;2024-01-30T02:28:37;13.17;;;3.60;;
70558;SDS011;58108;48.094;11.838;2024-01-30T02:31:02;8.43;;;2.77;;
70558;SDS011;58108;48.094;11.838;2024-01-30T02:33:28;11.73;;;3.58;;
70558;SDS011;58108;48.094;11.838;2024-01-30T02:35:54;10.13;;;3.30;;
70558;SDS011;58108;48.094;11.838;2024-01-30T02:38:20;16.92;;;5.28;;
70558;SDS011;58108;48.094;11.838;2024-01-30T02:40:45;17.93;;;5.00;;
70558;SDS011;58108;48.094;11.838;2024-01-30T02:43:11;17.17;;;4.72;;
70558;SDS011;58108;48.094;11.838;2024-01-30T02:45:37;9.25;;;3.30;;
70558;SDS011;58108;48.094;11.838;2024-01-30T02:48:03;12.98;;;3.22;;
70558;SDS011;58108;48.094;11.838;2024-01-30T02:50:28;7.93;;;2.40;;
70558;SDS011;58108;48.094;11.838;2024-01-30T02:52:54;8.00;;;2.93;;
70558;SDS011;58108;48.094;11.838;2024-01-30T02:55:20;6.28;;;1.85;;
70558;SDS011;58108;48.094;11.838;2024-01-30T02:57:45;9.83;;;2.13;;
70558;SDS011;58108;48.094;11.838;2024-01-30T03:00:11;5.47;;;2.00;;
70558;SDS011;58108;48.094;11.838;2024-01-30T03:02:37;6.82;;;1.92;;
70558;SDS011;58108;48.094;11.838;2024-01-30T03:05:02;9.33;;;2.27;;
70558;SDS011;58108;48.094;11.838;2024-01-30T03:07:29;6.35;;;2.10;;
70558;SDS011;58108;48.094;11.838;2024-01-30T03:09:54;4.97;;;1.60;;
70558;SDS011;58108;48.094;11.838;2024-01-30T03:12:21;9.30;;;2.30;;
70558;SDS011;58108;48.094;11.838;2024-01-30T03:14:46;5.95;;;1.77;;
70558;SDS011;58108;48.094;11.838;2024-01-30T03:17:12;6.50;;;2.13;;
70558;SDS011;58108;48.094;11.838;2024-01-30T03:19:37;6.53;;;2.20;;
70558;SDS011;58108;48.094;11.838;2024-01-30T03:22:03;6.27;;;1.90;;
70558;SDS011;58108;48.094;11.838;2024-01-30T03:24:28;8.77;;;2.60;;
70558;SDS011;58108;48.094;11.838;2024-01-30T03:26:54;9.30;;;2.70;;
70558;SDS011;58108;48.094;11.838;2024-01-30T03:29:19;7.60;;;2.23;;
70558;SDS011;58108;48.094;11.838;2024-01-30T03:31:45;6.37;;;2.27;;
70558;SDS011;58108;48.094;11.838;2024-01-30T03:34:10;8.23;;;2.13;;
70558;SDS011;58108;48.094;11.838;2024-01-30T03:36:36;6.80;;;2.13;;
70558;SDS011;58108;48.094;11.838;2024-01-30T03:39:01;5.70;;;2.17;;
70558;SDS011;58108;48.094;11.838;2024-01-30T03:41:27;6.10;;;1.67;;
70558;SDS011;58108;48.094;11.838;2024-01-30T03:43:53;5.63;;;1.88;;
70558;SDS011;58108;48.094;11.838;2024-01-30T03:46:18;4.17;;;1.63;;
70558;SDS011;58108;48.094;11.838;2024-01-30T03:48:44;6.30;;;2.23;;
70558;SDS011;58108;48.094;11.838;2024-01-30T03:51:10;7.30;;;2.03;;
70558;SDS011;58108;48.094;11.838;2024-01-30T03:53:43;4.22;;;1.30;;
70558;SDS011;58108;48.094;11.838;2024-01-30T03:56:09;5.70;;;1.73;;
70558;SDS011;58108;48.094;11.838;2024-01-30T03:58:35;6.93;;;2.13;;
70558;SDS011;58108;48.094;11.838;2024-01-30T04:01:00;4.78;;;2.00;;
70558;SDS011;58108;48.094;11.838;2024-01-30T04:03:26;5.40;;;1.90;;
70558;SDS011;58108;48.094;11.838;2024-01-30T04:05:52;6.53;;;2.17;;
70558;SDS011;58108;48.094;11.838;2024-01-30T04:08:18;6.23;;;1.93;;
70558;SDS011;58108;48.094;11.838;2024-01-30T04:10:44;7.05;;;1.88;;
70558;SDS011;58108;48.094;11.838;2024-01-30T04:13:10;5.13;;;1.50;;
70558;SDS011;58108;48.094;11.838;2024-01-30T04:15:35;7.13;;;2.13;;
70558;SDS011;58108;48.094;11.838;2024-01-30T04:18:01;7.20;;;1.98;;
70558;SDS011;58108;48.094;11.838;2024-01-30T04:20:27;5.00;;;1.67;;
70558;SDS011;58108;48.094;11.838;2024-01-30T04:22:52;5.17;;;1.40;;
70558;SDS011;58108;48.094;11.838;2024-01-30T04:25:18;4.68;;;1.45;;
70558;SDS011;58108;48.094;11.838;2024-01-30T04:27:43;8.40;;;1.13;;
70558;SDS011;58108;48.094;11.838;2024-01-30T04:30:09;4.27;;;1.60;;
70558;SDS011;58108;48.094;11.838;2024-01-30T04:32:35;5.07;;;1.30;;
70558;SDS011;58108;48.094;11.838;2024-01-30T04:35:01;4.20;;;1.60;;
70558;SDS011;58108;48.094;11.838;2024-01-30T04:37:27;4.72;;;1.30;;
70558;SDS011;58108;48.094;11.838;2024-01-30T04:39:53;4.95;;;1.88;;
70558;SDS011;58108;48.094;11.838;2024-01-30T04:42:19;5.33;;;1.60;;
70558;SDS011;58108;48.094;11.838;2024-01-30T04:44:44;7.45;;;1.70;;
70558;SDS011;58108;48.094;11.838;2024-01-30T04:47:10;4.87;;;1.20;;
70558;SDS011;58108;48.094;11.838;2024-01-30T04:49:39;7.95;;;1.63;;
70558;SDS011;58108;48.094;11.838;2024-01-30T04:52:06;5.20;;;1.20;;
70558;SDS011;58108;48.094;11.838;2024-01-30T04:54:32;6.07;;;1.58;;
70558;SDS011;58108;48.094;11.838;2024-01-30T04:56:58;4.57;;;1.47;;
70558;SDS011;58108;48.094;11.838;2024-01-30T04:59:23;4.78;;;1.17;;
70558;SDS011;58108;48.094;11.838;2024-01-30T05:01:49;4.63;;;1.17;;
70558;SDS011;58108;48.094;11.838;2024-01-30T05:04:15;3.80;;;1.00;;
70558;SDS011;58108;48.094;11.838;2024-01-30T05:06:40;4.50;;;1.10;;
70558;SDS011;58108;48.094;11.838;2024-01-30T05:09:06;3.27;;;0.80;;
70558;SDS011;58108;48.094;11.838;2024-01-30T05:11:36;3.88;;;0.93;;
70558;SDS011;58108;48.094;11.838;2024-01-30T05:14:05;4.95;;;1.00;;
70558;SDS011;58108;48.094;11.838;2024-01-30T05:16:32;5.23;;;1.37;;
70558;SDS011;58108;48.094;11.838;2024-01-30T05:18:58;6.93;;;1.90;;
70558;SDS011;58108;48.094;11.838;2024-01-30T05:21:24;5.60;;;1.60;;
70558;SDS011;58108;48.094;11.838;2024-01-30T05:23:49;4.70;;;1.00;;
70558;SDS011;58108;48.094;11.838;2024-01-30T05:26:14;4.10;;;0.70;;
70558;SDS011;58108;48.094;11.838;2024-01-30T05:28:40;3.53;;;0.88;;
70558;SDS011;58108;48.094;11.838;2024-01-30T05:31:06;3.72;;;1.00;;
70558;SDS011;58108;48.094;11.838;2024-01-30T05:33:31;4.27;;;1.30;;
70558;SDS011;58108;48.094;11.838;2024-01-30T05:35:57;4.32;;;1.05;;
70558;SDS011;58108;48.094;11.838;2024-01-30T05:38:22;4.95;;;1.40;;
70558;SDS011;58108;48.094;11.838;2024-01-30T05:40:48;3.90;;;1.10;;
70558;SDS011;58108;48.094;11.838;2024-01-30T05:43:13;3.00;;;0.63;;
70558;SDS011;58108;48.094;11.838;2024-01-30T05:45:39;2.35;;;0.50;;
70558;SDS011;58108;48.094;11.838;2024-01-30T05:48:04;4.47;;;0.83;;
70558;SDS011;58108;48.094;11.838;2024-01-30T05:50:30;3.35;;;0.88;;
70558;SDS011;58108;48.094;11.838;2024-01-30T05:52:56;3.40;;;0.60;;
70558;SDS011;58108;48.094;11.838;2024-01-30T05:55:21;3.23;;;0.73;;
70558;SDS011;58108;48.094;11.838;2024-01-30T05:57:47;3.30;;;0.77;;
70558;SDS011;58108;48.094;11.838;2024-01-30T06:00:12;3.88;;;0.77;;
70558;SDS011;58108;48.094;11.838;2024-01-30T06:02:38;3.75;;;0.90;;
70558;SDS011;58108;48.094;11.838;2024-01-30T06:05:04;4.67;;;0.90;;
70558;SDS011;58108;48.094;11.838;2024-01-30T06:07:30;4.13;;;0.70;;
70558;SDS011;58108;48.094;11.838;2024-01-30T06:09:55;2.65;;;0.60;;
70558;SDS011;58108;48.094;11.838;2024-01-30T06:12:21;3.57;;;0.80;;
70558;SDS011;58108;48.094;11.838;2024-01-30T06:14:46;3.90;;;0.80;;
70558;SDS011;58108;48.094;11.838;2024-01-30T06:17:11;2.97;;;0.60;;
70558;SDS011;58108;48.094;11.838;2024-01-30T06:19:40;2.75;;;0.60;;
70558;SDS011;58108;48.094;11.838;2024-01-30T06:22:06;3.00;;;0.60;;
70558;SDS011;58108;48.094;11.838;2024-01-30T06:24:32;2.63;;;0.38;;
70558;SDS011;58108;48.094;11.838;2024-01-30T06:26:58;2.80;;;0.70;;
70558;SDS011;58108;48.094;11.838;2024-01-30T06:29:24;3.00;;;0.60;;
70558;SDS011;58108;48.094;11.838;2024-01-30T06:31:51;2.67;;;0.43;;
70558;SDS011;58108;48.094;11.838;2024-01-30T06:34:17;4.23;;;0.70;;
70558;SDS011;58108;48.094;11.838;2024-01-30T06:36:42;4.23;;;0.50;;
70558;SDS011;58108;48.094;11.838;2024-01-30T06:39:08;3.40;;;0.60;;
70558;SDS011;58108;48.094;11.838;2024-01-30T06:41:34;3.00;;;0.70;;
70558;SDS011;58108;48.094;11.838;2024-01-30T06:44:01;3.17;;;0.57;;
70558;SDS011;58108;48.094;11.838;2024-01-30T06:46:28;3.53;;;0.73;;
70558;SDS011;58108;48.094;11.838;2024-01-30T06:48:53;6.73;;;0.90;;
70558;SDS011;58108;48.094;11.838;2024-01-30T06:51:19;3.95;;;1.15;;
70558;SDS011;58108;48.094;11.838;2024-01-30T06:53:45;2.93;;;0.83;;
70558;SDS011;58108;48.094;11.838;2024-01-30T06:56:10;5.07;;;1.00;;
70558;SDS011;58108;48.094;11.838;2024-01-30T06:58:36;4.20;;;0.60;;
70558;SDS011;58108;48.094;11.838;2024-01-30T07:01:01;3.47;;;0.70;;
70558;SDS011;58108;48.094;11.838;2024-01-30T07:03:27;2.70;;;0.40;;
70558;SDS011;58108;48.094;11.838;2024-01-30T07:05:52;2.60;;;0.50;;
70558;SDS011;58108;48.094;11.838;2024-01-30T07:08:18;3.77;;;0.67;;
70558;SDS011;58108;48.094;11.838;2024-01-30T07:10:43;2.93;;;0.50;;
70558;SDS011;58108;48.094;11.838;2024-01-30T07:13:10;1.92;;;0.40;;
70558;SDS011;58108;48.094;11.838;2024-01-30T07:15:36;4.10;;;0.65;;
70558;SDS011;58108;48.094;11.838;2024-01-30T07:18:02;3.37;;;0.60;;
70558;SDS011;58108;48.094;11.838;2024-01-30T07:20:28;2.55;;;0.50;;
70558;SDS011;58108;48.094;11.838;2024-01-30T07:22:55;2.28;;;0.38;;
70558;SDS011;58108;48.094;11.838;2024-01-30T07:25:21;3.53;;;0.30;;
70558;SDS011;58108;48.094;11.838;2024-01-30T07:27:46;2.97;;;0.47;;
70558;SDS011;58108;48.094;11.838;2024-01-30T07:30:12;2.90;;;0.60;;
70558;SDS011;58108;48.094;11.838;2024-01-30T07:32:38;3.67;;;0.87;;
70558;SDS011;58108;48.094;11.838;2024-01-30T07:35:03;4.72;;;1.20;;
70558;SDS011;58108;48.094;11.838;2024-01-30T07:37:29;4.63;;;1.10;;
70558;SDS011;58108;48.094;11.838;2024-01-30T07:39:55;5.72;;;1.25;;
70558;SDS011;58108;48.094;11.838;2024-01-30T07:42:20;8.23;;;1.37;;
70558;SDS011;58108;48.094;11.838;2024-01-30T07:44:46;4.80;;;1.27;;
70558;SDS011;58108;48.094;11.838;2024-01-30T07:47:11;5.43;;;1.50;;
70558;SDS011;58108;48.094;11.838;2024-01-30T07:49:37;3.80;;;0.87;;
70558;SDS011;58108;48.094;11.838;2024-01-30T07:52:03;3.67;;;0.88;;
70558;SDS011;58108;48.094;11.838;2024-01-30T07:54:32;5.83;;;0.93;;
70558;SDS011;58108;48.094;11.838;2024-01-30T07:56:59;4.72;;;0.93;;
70558;SDS011;58108;48.094;11.838;2024-01-30T07:59:25;3.33;;;0.80;;
70558;SDS011;58108;48.094;11.838;2024-01-30T08:01:51;5.67;;;0.60;;
70558;SDS011;58108;48.094;11.838;2024-01-30T08:04:16;2.60;;;0.75;;
70558;SDS011;58108;48.094;11.838;2024-01-30T08:06:42;3.40;;;0.57;;
70558;SDS011;58108;48.094;11.838;2024-01-30T08:09:08;2.72;;;0.63;;
70558;SDS011;58108;48.094;11.838;2024-01-30T08:11:34;3.30;;;0.63;;
70558;SDS011;58108;48.094;11.838;2024-01-30T08:13:59;4.17;;;0.90;;
70558;SDS011;58108;48.094;11.838;2024-01-30T08:16:24;4.28;;;0.77;;
70558;SDS011;58108;48.094;11.838;2024-01-30T08:18:50;5.70;;;1.17;;
70558;SDS011;58108;48.094;11.838;2024-01-30T08:21:16;4.13;;;1.00;;
70558;SDS011;58108;48.094;11.838;2024-01-30T08:23:41;3.08;;;1.10;;
70558;SDS011;58108;48.094;11.838;2024-01-30T08:26:08;4.72;;;0.90;;
70558;SDS011;58108;48.094;11.838;2024-01-30T08:28:33;6.05;;;1.30;;
70558;SDS011;58108;48.094;11.838;2024-01-30T08:30:59;4.80;;;1.37;;
70558;SDS011;58108;48.094;11.838;2024-01-30T08:33:24;5.57;;;1.47;;
70558;SDS011;58108;48.094;11.838;2024-01-30T08:35:50;6.13;;;1.90;;
70558;SDS011;58108;48.094;11.838;2024-01-30T08:38:15;4.63;;;1.08;;
70558;SDS011;58108;48.094;11.838;2024-01-30T08:40:41;5.17;;;1.13;;
70558;SDS011;58108;48.094;11.838;2024-01-30T08:43:07;4.20;;;1.05;;
70558;SDS011;58108;48.094;11.838;2024-01-30T08:45:34;4.03;;;1.23;;
70558;SDS011;58108;48.094;11.838;2024-01-30T08:48:00;4.43;;;1.17;;
70558;SDS011;58108;48.094;11.838;2024-01-30T08:50:25;4.27;;;1.40;;
70558;SDS011;58108;48.094;11.838;2024-01-30T08:52:51;9.23;;;3.20;;
70558;SDS011;58108;48.094;11.838;2024-01-30T08:55:16;5.20;;;1.30;;
70558;SDS011;58108;48.094;11.838;2024-01-30T08:57:42;5.33;;;1.23;;
70558;SDS011;58108;48.094;11.838;2024-01-30T09:00:08;7.23;;;1.37;;
70558;SDS011;58108;48.094;11.838;2024-01-30T09:02:35;4.95;;;1.08;;
70558;SDS011;58108;48.094;11.838;2024-01-30T09:05:00;4.05;;;1.17;;
70558;SDS011;58108;48.094;11.838;2024-01-30T09:07:26;4.73;;;1.10;;
70558;SDS011;58108;48.094;11.838;2024-01-30T09:09:52;3.33;;;0.97;;
70558;SDS011;58108;48.094;11.838;2024-01-30T09:12:17;3.30;;;1.00;;
70558;SDS011;58108;48.094;11.838;2024-01-30T09:14:43;6.63;;;2.40;;
70558;SDS011;58108;48.094;11.838;2024-01-30T09:17:09;4.88;;;1.40;;
70558;SDS011;58108;48.094;11.838;2024-01-30T09:19:34;4.55;;;1.40;;
70558;SDS011;58108;48.094;11.838;2024-01-30T09:22:00;4.27;;;1.27;;
70558;SDS011;58108;48.094;11.838;2024-01-30T09:24:26;12.10;;;3.33;;
70558;SDS011;58108;48.094;11.838;2024-01-30T09:26:52;13.68;;;3.60;;
70558;SDS011;58108;48.094;11.838;2024-01-30T09:29:18;14.07;;;3.83;;
70558;SDS011;58108;48.094;11.838;2024-01-30T09:31:44;15.38;;;3.08;;
70558;SDS011;58108;48.094;11.838;2024-01-30T09:34:10;5.30;;;1.60;;
70558;SDS011;58108;48.094;11.838;2024-01-30T09:36:36;6.43;;;1.60;;
70558;SDS011;58108;48.094;11.838;2024-01-30T09:39:01;4.17;;;1.10;;
70558;SDS011;58108;48.094;11.838;2024-01-30T09:41:27;5.10;;;0.98;;
70558;SDS011;58108;48.094;11.838;2024-01-30T09:43:53;5.47;;;1.30;;
70558;SDS011;58108;48.094;11.838;2024-01-30T09:46:20;5.88;;;1.60;;
70558;SDS011;58108;48.094;11.838;2024-01-30T09:48:47;3.97;;;1.75;;
70558;SDS011;58108;48.094;11.838;2024-01-30T09:51:14;4.78;;;2.05;;
70558;SDS011;58108;48.094;11.838;2024-01-30T09:53:40;7.65;;;2.10;;
70558;SDS011;58108;48.094;11.838;2024-01-30T09:56:08;4.38;;;1.80;;
70558;SDS011;58108;48.094;11.838;2024-01-30T09:58:33;6.03;;;1.90;;
70558;SDS011;58108;48.094;11.838;2024-01-30T10:00:59;5.13;;;1.70;;
70558;SDS011;58108;48.094;11.838;2024-01-30T10:03:24;4.23;;;1.60;;
70558;SDS011;58108;48.094;11.838;2024-01-30T10:05:51;4.35;;;1.33;;
70558;SDS011;58108;48.094;11.838;2024-01-30T10:08:18;8.17;;;1.87;;
70558;SDS011;58108;48.094;11.838;2024-01-30T10:10:47;3.90;;;1.13;;
70558;SDS011;58108;48.094;11.838;2024-01-30T10:13:15;3.42;;;1.15;;
70558;SDS011;58108;48.094;11.838;2024-01-30T10:15:41;4.38;;;1.50;;
70558;SDS011;58108;48.094;11.838;2024-01-30T10:18:08;4.77;;;1.50;;
70558;SDS011;58108;48.094;11.838;2024-01-30T10:20:35;5.43;;;1.67;;
70558;SDS011;58108;48.094;11.838;2024-01-30T10:23:01;4.43;;;2.10;;
70558;SDS011;58108;48.094;11.838;2024-01-30T10:25:27;5.00;;;1.70;;
70558;SDS011;58108;48.094;11.838;2024-01-30T10:27:53;3.57;;;1.00;;
70558;SDS011;58108;48.094;11.838;2024-01-30T10:30:22;3.78;;;0.95;;
70558;SDS011;58108;48.094;11.838;2024-01-30T10:32:48;3.37;;;1.00;;
70558;SDS011;58108;48.094;11.838;2024-01-30T10:35:13;5.05;;;1.55;;
70558;SDS011;58108;48.094;11.838;2024-01-30T10:37:41;5.18;;;1.95;;
70558;SDS011;58108;48.094;11.838;2024-01-30T10:40:09;3.92;;;1.30;;
70558;SDS011;58108;48.094;11.838;2024-01-30T10:42:38;3.30;;;0.80;;
70558;SDS011;58108;48.094;11.838;2024-01-30T10:45:09;2.40;;;0.77;;
70558;SDS011;58108;48.094;11.838;2024-01-30T10:47:53;6.00;;;0.88;;
70558;SDS011;58108;48.094;11.838;2024-01-30T10:50:24;3.63;;;1.60;;
70558;SDS011;58108;48.094;11.838;2024-01-30T10:52:51;6.63;;;2.08;;
70558;SDS011;58108;48.094;11.838;2024-01-30T10:55:18;3.37;;;1.10;;
70558;SDS011;58108;48.094;11.838;2024-01-30T10:57:43;4.28;;;0.80;;
70558;SDS011;58108;48.094;11.838;2024-01-30T11:00:13;5.07;;;1.10;;
70558;SDS011;58108;48.094;11.838;2024-01-30T11:02:44;2.58;;;0.70;;
70558;SDS011;58108;48.094;11.838;2024-01-30T11:05:11;3.20;;;0.80;;
70558;SDS011;58108;48.094;11.838;2024-01-30T11:07:38;2.97;;;0.82;;
70558;SDS011;58108;48.094;11.838;2024-01-30T11:10:08;3.22;;;0.73;;
70558;SDS011;58108;48.094;11.838;2024-01-30T11:12:40;3.43;;;0.80;;
70558;SDS011;58108;48.094;11.838;2024-01-30T11:15:08;3.35;;;0.60;;
70558;SDS011;58108;48.094;11.838;2024-01-30T11:17:44;2.65;;;0.90;;
70558;SDS011;58108;48.094;11.838;2024-01-30T11:22:52;2.70;;;0.60;;
70558;SDS011;58108;48.094;11.838;2024-01-30T11:25:20;2.83;;;0.73;;
70558;SDS011;58108;48.094;11.838;2024-01-30T11:27:46;2.72;;;0.60;;
70558;SDS011;58108;48.094;11.838;2024-01-30T11:30:47;2.40;;;0.85;;
70558;SDS011;58108;48.094;11.838;2024-01-30T11:33:09;2.95;;;1.38;;
70558;SDS011;58108;48.094;11.838;2024-01-30T11:35:40;3.13;;;1.08;;
70558;SDS011;58108;48.094;11.838;2024-01-30T11:38:13;3.13;;;0.90;;
70558;SDS011;58108;48.094;11.838;2024-01-30T11:40:39;3.30;;;1.25;;
70558;SDS011;58108;48.094;11.838;2024-01-30T11:43:06;4.10;;;1.00;;
70558;SDS011;58108;48.094;11.838;2024-01-30T11:45:33;2.90;;;1.13;;
70558;SDS011;58108;48.094;11.838;2024-01-30T11:47:59;2.45;;;1.15;;
70558;SDS011;58108;48.094;11.838;2024-01-30T11:50:31;2.40;;;1.20;;
70558;SDS011;58108;48.094;11.838;2024-01-30T11:52:58;2.67;;;1.20;;
70558;SDS011;58108;48.094;11.838;2024-01-30T11:55:27;2.60;;;1.00;;
70558;SDS011;58108;48.094;11.838;2024-01-30T11:57:57;3.90;;;1.20;;
70558;SDS011;58108;48.094;11.838;2024-01-30T12:00:23;2.97;;;1.20;;
70558;SDS011;58108;48.094;11.838;2024-01-30T12:02:50;3.43;;;1.23;;
70558;SDS011;58108;48.094;11.838;2024-01-30T12:05:18;3.13;;;1.20;;
70558;SDS011;58108;48.094;11.838;2024-01-30T12:07:45;5.25;;;1.13;;
70558;SDS011;58108;48.094;11.838;2024-01-30T12:10:13;3.50;;;1.35;;
70558;SDS011;58108;48.094;11.838;2024-01-30T12:12:39;3.80;;;1.33;;
70558;SDS011;58108;48.094;11.838;2024-01-30T12:15:08;4.18;;;1.58;;
70558;SDS011;58108;48.094;11.838;2024-01-30T12:17:34;6.85;;;2.65;;
70558;SDS011;58108;48.094;11.838;2024-01-30T12:22:38;5.93;;;2.17;;
70558;SDS011;58108;48.094;11.838;2024-01-30T12:25:09;3.17;;;1.20;;
70558;SDS011;58108;48.094;11.838;2024-01-30T12:27:36;3.13;;;1.17;;
70558;SDS011;58108;48.094;11.838;2024-01-30T12:30:06;3.40;;;1.45;;
70558;SDS011;58108;48.094;11.838;2024-01-30T12:32:34;2.90;;;1.20;;
70558;SDS011;58108;48.094;11.838;2024-01-30T12:35:07;3.57;;;1.30;;
70558;SDS011;58108;48.094;11.838;2024-01-30T12:37:36;3.60;;;1.50;;
70558;SDS011;58108;48.094;11.838;2024-01-30T12:40:02;2.63;;;1.10;;
70558;SDS011;58108;48.094;11.838;2024-01-30T12:42:28;3.15;;;1.10;;
70558;SDS011;58108;48.094;11.838;2024-01-30T12:44:56;2.80;;;1.37;;
70558;SDS011;58108;48.094;11.838;2024-01-30T12:47:25;2.75;;;1.20;;
70558;SDS011;58108;48.094;11.838;2024-01-30T12:49:51;3.35;;;1.27;;
70558;SDS011;58108;48.094;11.838;2024-01-30T12:52:19;4.25;;;1.35;;
70558;SDS011;58108;48.094;11.838;2024-01-30T12:54:49;2.50;;;1.20;;
70558;SDS011;58108;48.094;11.838;2024-01-30T12:57:15;4.75;;;2.92;;
70558;SDS011;58108;48.094;11.838;2024-01-30T12:59:41;2.80;;;1.20;;
70558;SDS011;58108;48.094;11.838;2024-01-30T13:02:08;2.92;;;1.10;;
70558;SDS011;58108;48.094;11.838;2024-01-30T13:04:34;3.50;;;1.40;;
70558;SDS011;58108;48.094;11.838;2024-01-30T13:07:00;3.15;;;1.55;;
70558;SDS011;58108;48.094;11.838;2024-01-30T13:09:32;4.85;;;1.60;;
70558;SDS011;58108;48.094;11.838;2024-01-30T13:11:58;3.08;;;1.40;;
70558;SDS011;58108;48.094;11.838;2024-01-30T13:14:24;3.58;;;1.10;;
70558;SDS011;58108;48.094;11.838;2024-01-30T13:16:50;3.43;;;1.20;;
70558;SDS011;58108;48.094;11.838;2024-01-30T13:19:16;3.05;;;1.50;;
70558;SDS011;58108;48.094;11.838;2024-01-30T13:21:42;4.57;;;1.40;;
70558;SDS011;58108;48.094;11.838;2024-01-30T13:24:08;3.38;;;1.63;;
70558;SDS011;58108;48.094;11.838;2024-01-30T13:26:34;2.55;;;1.45;;
70558;SDS011;58108;48.094;11.838;2024-01-30T13:29:00;4.50;;;1.50;;
70558;SDS011;58108;48.094;11.838;2024-01-30T13:31:26;2.80;;;1.50;;
70558;SDS011;58108;48.094;11.838;2024-01-30T13:33:52;3.07;;;1.40;;
70558;SDS011;58108;48.094;11.838;2024-01-30T13:36:18;3.22;;;1.30;;
70558;SDS011;58108;48.094;11.838;2024-01-30T13:38:44;3.42;;;1.55;;
70558;SDS011;58108;48.094;11.838;2024-01-30T13:41:10;3.90;;;1.30;;
70558;SDS011;58108;48.094;11.838;2024-01-30T13:43:35;3.53;;;1.10;;
70558;SDS011;58108;48.094;11.838;2024-01-30T13:46:01;3.22;;;1.10;;
70558;SDS011;58108;48.094;11.838;2024-01-30T13:48:26;2.93;;;1.10;;
70558;SDS011;58108;48.094;11.838;2024-01-30T13:50:52;2.63;;;1.23;;
70558;SDS011;58108;48.094;11.838;2024-01-30T13:53:18;3.60;;;1.65;;
70558;SDS011;58108;48.094;11.838;2024-01-30T13:55:44;2.93;;;1.20;;
70558;SDS011;58108;48.094;11.838;2024-01-30T13:58:10;2.67;;;1.50;;
70558;SDS011;58108;48.094;11.838;2024-01-30T14:00:36;2.87;;;1.20;;
70558;SDS011;58108;48.094;11.838;2024-01-30T14:03:01;4.60;;;1.20;;
70558;SDS011;58108;48.094;11.838;2024-01-30T14:05:27;3.15;;;1.08;;
70558;SDS011;58108;48.094;11.838;2024-01-30T14:07:55;4.77;;;1.30;;
70558;SDS011;58108;48.094;11.838;2024-01-30T14:10:22;3.42;;;1.20;;
70558;SDS011;58108;48.094;11.838;2024-01-30T14:12:48;3.85;;;1.20;;
70558;SDS011;58108;48.094;11.838;2024-01-30T14:15:14;3.60;;;1.50;;
70558;SDS011;58108;48.094;11.838;2024-01-30T14:17:40;2.70;;;1.27;;
70558;SDS011;58108;48.094;11.838;2024-01-30T14:20:06;2.35;;;1.10;;
70558;SDS011;58108;48.094;11.838;2024-01-30T14:22:33;4.65;;;1.30;;
70558;SDS011;58108;48.094;11.838;2024-01-30T14:25:00;3.63;;;1.10;;
70558;SDS011;58108;48.094;11.838;2024-01-30T14:27:26;2.63;;;0.90;;
70558;SDS011;58108;48.094;11.838;2024-01-30T14:29:51;3.33;;;0.80;;
70558;SDS011;58108;48.094;11.838;2024-01-30T14:32:17;3.38;;;0.80;;
70558;SDS011;58108;48.094;11.838;2024-01-30T14:34:42;2.50;;;0.90;;